sensor_id;sensor_type;location;lat;lon;timestamp;pressure;altitude;pressure_sealevel;temperature;humidity
10464;BME280;5279;42.048;24.638;2023-02-28T00:00:00;97935.91;;;10.69;80.01
10464;BME280;5279;42.048;24.638;2023-02-28T00:02:33;97930.03;;;10.66;80.74
10464;BME280;5279;42.048;24.638;2023-02-28T00:05:00;97938.00;;;10.75;80.65
10464;BME280;5279;42.048;24.638;2023-02-28T00:07:28;97931.16;;;10.82;78.92
10464;BME280;5279;42.048;24.638;2023-02-28T00:09:56;97935.78;;;10.90;78.02
10464;BME280;5279;42.048;24.638;2023-02-28T00:12:22;97940.25;;;10.89;78.37
10464;BME280;5279;42.048;24.638;2023-02-28T00:14:49;97933.00;;;10.91;78.73
10464;BME280;5279;42.048;24.638;2023-02-28T00:17:18;97938.28;;;10.91;78.52
10464;BME280;5279;42.048;24.638;2023-02-28T00:19:46;97934.63;;;10.73;80.34
10464;BME280;5279;42.048;24.638;2023-02-28T00:22:14;97934.63;;;10.54;82.68
10464;BME280;5279;42.048;24.638;2023-02-28T00:24:41;97941.59;;;10.55;83.20
10464;BME280;5279;42.048;24.638;2023-02-28T00:27:08;97939.59;;;10.38;86.15
10464;BME280;5279;42.048;24.638;2023-02-28T00:29:36;97928.59;;;10.52;85.02
10464;BME280;5279;42.048;24.638;2023-02-28T00:32:04;97934.94;;;10.61;84.56
10464;BME280;5279;42.048;24.638;2023-02-28T00:34:33;97935.19;;;10.67;83.70
10464;BME280;5279;42.048;24.638;2023-02-28T00:37:04;97929.88;;;10.67;83.74
10464;BME280;5279;42.048;24.638;2023-02-28T00:39:35;97941.75;;;10.63;84.02
10464;BME280;5279;42.048;24.638;2023-02-28T00:42:02;97949.72;;;10.63;84.46
10464;BME280;5279;42.048;24.638;2023-02-28T00:44:29;97941.03;;;10.61;85.51
10464;BME280;5279;42.048;24.638;2023-02-28T00:47:00;97950.25;;;10.57;85.64
10464;BME280;5279;42.048;24.638;2023-02-28T00:49:27;97932.38;;;10.50;85.38
10464;BME280;5279;42.048;24.638;2023-02-28T00:51:56;97935.72;;;10.42;86.28
10464;BME280;5279;42.048;24.638;2023-02-28T00:54:23;97944.56;;;10.22;87.53
10464;BME280;5279;42.048;24.638;2023-02-28T00:56:50;97944.25;;;10.15;89.46
10464;BME280;5279;42.048;24.638;2023-02-28T00:59:17;97941.47;;;10.17;89.64
10464;BME280;5279;42.048;24.638;2023-02-28T01:01:45;97952.06;;;10.17;90.26
10464;BME280;5279;42.048;24.638;2023-02-28T01:04:12;97946.50;;;10.20;93.36
10464;BME280;5279;42.048;24.638;2023-02-28T01:06:40;97940.38;;;10.19;94.77
10464;BME280;5279;42.048;24.638;2023-02-28T01:09:08;97939.00;;;10.25;95.00
10464;BME280;5279;42.048;24.638;2023-02-28T01:11:36;97953.50;;;10.21;93.03
10464;BME280;5279;42.048;24.638;2023-02-28T01:14:03;97956.97;;;10.01;91.07
10464;BME280;5279;42.048;24.638;2023-02-28T01:16:30;97963.00;;;10.03;93.14
10464;BME280;5279;42.048;24.638;2023-02-28T01:18:57;97956.44;;;10.07;93.43
10464;BME280;5279;42.048;24.638;2023-02-28T01:21:25;97941.81;;;10.03;92.81
10464;BME280;5279;42.048;24.638;2023-02-28T01:23:52;97938.41;;;9.91;93.88
10464;BME280;5279;42.048;24.638;2023-02-28T01:26:21;97936.25;;;9.75;95.61
10464;BME280;5279;42.048;24.638;2023-02-28T01:28:49;97940.47;;;9.57;100.00
10464;BME280;5279;42.048;24.638;2023-02-28T01:31:17;97939.94;;;9.63;100.00
10464;BME280;5279;42.048;24.638;2023-02-28T01:33:44;97937.59;;;9.70;100.00
10464;BME280;5279;42.048;24.638;2023-02-28T01:36:14;97936.94;;;9.77;100.00
10464;BME280;5279;42.048;24.638;2023-02-28T01:38:41;97944.47;;;9.82;95.73
10464;BME280;5279;42.048;24.638;2023-02-28T01:41:12;97968.88;;;9.85;92.83
10464;BME280;5279;42.048;24.638;2023-02-28T01:44:01;97975.59;;;9.89;93.10
10464;BME280;5279;42.048;24.638;2023-02-28T01:46:30;97980.47;;;9.94;91.33
10464;BME280;5279;42.048;24.638;2023-02-28T01:49:02;97983.44;;;10.01;89.59
10464;BME280;5279;42.048;24.638;2023-02-28T01:51:39;97970.47;;;9.98;88.90
10464;BME280;5279;42.048;24.638;2023-02-28T01:54:14;97972.84;;;10.01;88.10
10464;BME280;5279;42.048;24.638;2023-02-28T01:56:45;97991.28;;;10.02;86.45
10464;BME280;5279;42.048;24.638;2023-02-28T01:59:22;97987.94;;;10.10;85.93
10464;BME280;5279;42.048;24.638;2023-02-28T02:01:52;98005.53;;;10.11;86.56
10464;BME280;5279;42.048;24.638;2023-02-28T02:04:21;98003.56;;;10.13;85.97
10464;BME280;5279;42.048;24.638;2023-02-28T02:06:50;98002.25;;;10.18;85.15
10464;BME280;5279;42.048;24.638;2023-02-28T02:09:17;98008.38;;;10.19;84.52
10464;BME280;5279;42.048;24.638;2023-02-28T02:11:45;98004.53;;;9.81;89.09
10464;BME280;5279;42.048;24.638;2023-02-28T02:14:33;98004.06;;;9.76;89.42
10464;BME280;5279;42.048;24.638;2023-02-28T02:17:10;98009.06;;;9.91;89.02
10464;BME280;5279;42.048;24.638;2023-02-28T02:23:30;98013.38;;;9.50;95.00
10464;BME280;5279;42.048;24.638;2023-02-28T02:26:12;98014.06;;;9.52;93.98
10464;BME280;5279;42.048;24.638;2023-02-28T02:34:57;98020.59;;;9.16;95.68
10464;BME280;5279;42.048;24.638;2023-02-28T02:37:29;98018.81;;;9.17;95.56
10464;BME280;5279;42.048;24.638;2023-02-28T02:40:04;98011.63;;;8.97;100.00
10464;BME280;5279;42.048;24.638;2023-02-28T02:42:40;98026.31;;;8.90;100.00
10464;BME280;5279;42.048;24.638;2023-02-28T02:45:11;98023.00;;;8.65;100.00
10464;BME280;5279;42.048;24.638;2023-02-28T02:47:40;98029.00;;;8.67;100.00
10464;BME280;5279;42.048;24.638;2023-02-28T02:50:13;98029.22;;;8.75;100.00
10464;BME280;5279;42.048;24.638;2023-02-28T02:52:44;98043.41;;;8.74;100.00
10464;BME280;5279;42.048;24.638;2023-02-28T02:55:14;98040.63;;;8.76;100.00
10464;BME280;5279;42.048;24.638;2023-02-28T02:57:46;98042.91;;;8.81;100.00
10464;BME280;5279;42.048;24.638;2023-02-28T03:00:16;98042.19;;;8.90;100.00
10464;BME280;5279;42.048;24.638;2023-02-28T03:02:46;98058.03;;;8.90;100.00
10464;BME280;5279;42.048;24.638;2023-02-28T03:05:19;98052.75;;;8.90;100.00
10464;BME280;5279;42.048;24.638;2023-02-28T03:07:48;98055.84;;;8.95;99.55
10464;BME280;5279;42.048;24.638;2023-02-28T03:10:29;98060.31;;;8.94;100.00
10464;BME280;5279;42.048;24.638;2023-02-28T03:13:04;98071.22;;;9.01;98.59
10464;BME280;5279;42.048;24.638;2023-02-28T03:15:37;98068.63;;;8.90;100.00
10464;BME280;5279;42.048;24.638;2023-02-28T03:18:10;98066.19;;;8.98;99.49
10464;BME280;5279;42.048;24.638;2023-02-28T03:20:49;98057.31;;;8.99;99.88
10464;BME280;5279;42.048;24.638;2023-02-28T03:23:23;98062.59;;;8.99;99.50
10464;BME280;5279;42.048;24.638;2023-02-28T03:25:56;98069.28;;;9.03;99.97
10464;BME280;5279;42.048;24.638;2023-02-28T03:28:49;98073.06;;;8.89;100.00
10464;BME280;5279;42.048;24.638;2023-02-28T03:31:21;98067.38;;;8.94;100.00
10464;BME280;5279;42.048;24.638;2023-02-28T03:33:53;98071.72;;;8.95;100.00
10464;BME280;5279;42.048;24.638;2023-02-28T03:36:25;98077.00;;;8.95;100.00
10464;BME280;5279;42.048;24.638;2023-02-28T03:38:58;98069.78;;;8.97;100.00
10464;BME280;5279;42.048;24.638;2023-02-28T03:41:31;98072.91;;;9.02;100.00
10464;BME280;5279;42.048;24.638;2023-02-28T03:44:03;98075.06;;;9.08;100.00
10464;BME280;5279;42.048;24.638;2023-02-28T03:46:38;98079.84;;;9.03;100.00
10464;BME280;5279;42.048;24.638;2023-02-28T03:49:13;98082.88;;;8.98;100.00
10464;BME280;5279;42.048;24.638;2023-02-28T03:51:45;98084.94;;;8.95;100.00
10464;BME280;5279;42.048;24.638;2023-02-28T03:54:16;98088.06;;;8.89;100.00
10464;BME280;5279;42.048;24.638;2023-02-28T03:56:50;98091.09;;;8.84;100.00
10464;BME280;5279;42.048;24.638;2023-02-28T03:59:22;98093.84;;;8.83;100.00
10464;BME280;5279;42.048;24.638;2023-02-28T04:01:52;98107.75;;;8.85;100.00
10464;BME280;5279;42.048;24.638;2023-02-28T04:04:20;98109.69;;;8.83;100.00
10464;BME280;5279;42.048;24.638;2023-02-28T04:06:51;98111.84;;;8.55;100.00
10464;BME280;5279;42.048;24.638;2023-02-28T04:09:19;98108.72;;;8.39;100.00
10464;BME280;5279;42.048;24.638;2023-02-28T04:11:49;98120.19;;;8.16;100.00
10464;BME280;5279;42.048;24.638;2023-02-28T04:14:21;98120.66;;;8.10;100.00
10464;BME280;5279;42.048;24.638;2023-02-28T04:16:48;98117.06;;;8.22;100.00
10464;BME280;5279;42.048;24.638;2023-02-28T04:19:16;98117.34;;;8.30;100.00
10464;BME280;5279;42.048;24.638;2023-02-28T04:21:45;98123.84;;;8.37;100.00
10464;BME280;5279;42.048;24.638;2023-02-28T04:24:17;98123.28;;;8.45;100.00
10464;BME280;5279;42.048;24.638;2023-02-28T04:26:47;98117.16;;;8.44;100.00
10464;BME280;5279;42.048;24.638;2023-02-28T04:29:18;98122.66;;;8.52;100.00
10464;BME280;5279;42.048;24.638;2023-02-28T04:31:45;98111.38;;;8.50;100.00
10464;BME280;5279;42.048;24.638;2023-02-28T04:34:12;98116.91;;;8.47;100.00
10464;BME280;5279;42.048;24.638;2023-02-28T04:36:39;98108.13;;;8.47;100.00
10464;BME280;5279;42.048;24.638;2023-02-28T04:39:06;98115.69;;;8.51;100.00
10464;BME280;5279;42.048;24.638;2023-02-28T04:41:36;98124.22;;;8.44;100.00
10464;BME280;5279;42.048;24.638;2023-02-28T04:44:03;98121.91;;;8.39;100.00
10464;BME280;5279;42.048;24.638;2023-02-28T04:46:30;98120.03;;;8.41;100.00
10464;BME280;5279;42.048;24.638;2023-02-28T04:48:57;98119.06;;;8.53;100.00
10464;BME280;5279;42.048;24.638;2023-02-28T04:51:24;98122.19;;;8.58;100.00
10464;BME280;5279;42.048;24.638;2023-02-28T04:53:52;98116.66;;;8.61;100.00
10464;BME280;5279;42.048;24.638;2023-02-28T04:56:19;98124.13;;;8.56;100.00
10464;BME280;5279;42.048;24.638;2023-02-28T04:58:48;98123.50;;;8.53;100.00
10464;BME280;5279;42.048;24.638;2023-02-28T05:01:19;98129.25;;;8.47;100.00
10464;BME280;5279;42.048;24.638;2023-02-28T05:03:46;98130.97;;;8.24;100.00
10464;BME280;5279;42.048;24.638;2023-02-28T05:06:14;98131.22;;;8.10;100.00
10464;BME280;5279;42.048;24.638;2023-02-28T05:08:41;98130.75;;;8.16;100.00
10464;BME280;5279;42.048;24.638;2023-02-28T05:11:20;98139.97;;;8.21;100.00
10464;BME280;5279;42.048;24.638;2023-02-28T05:13:49;98144.59;;;8.31;100.00
10464;BME280;5279;42.048;24.638;2023-02-28T05:16:17;98150.25;;;8.37;100.00
10464;BME280;5279;42.048;24.638;2023-02-28T05:18:44;98151.25;;;8.47;100.00
10464;BME280;5279;42.048;24.638;2023-02-28T05:21:24;98156.53;;;8.58;100.00
10464;BME280;5279;42.048;24.638;2023-02-28T05:23:51;98157.00;;;8.63;100.00
10464;BME280;5279;42.048;24.638;2023-02-28T05:26:18;98160.38;;;8.65;100.00
10464;BME280;5279;42.048;24.638;2023-02-28T05:28:49;98159.41;;;8.55;100.00
10464;BME280;5279;42.048;24.638;2023-02-28T05:31:16;98162.53;;;8.60;100.00
10464;BME280;5279;42.048;24.638;2023-02-28T05:33:43;98170.94;;;8.65;100.00
10464;BME280;5279;42.048;24.638;2023-02-28T05:36:10;98171.66;;;8.67;100.00
10464;BME280;5279;42.048;24.638;2023-02-28T05:38:37;98181.28;;;8.68;100.00
10464;BME280;5279;42.048;24.638;2023-02-28T05:41:08;98186.53;;;8.57;100.00
10464;BME280;5279;42.048;24.638;2023-02-28T05:43:35;98197.09;;;8.57;100.00
10464;BME280;5279;42.048;24.638;2023-02-28T05:46:04;98195.81;;;8.63;100.00
10464;BME280;5279;42.048;24.638;2023-02-28T05:48:32;98195.31;;;8.58;100.00
10464;BME280;5279;42.048;24.638;2023-02-28T05:50:59;98181.03;;;8.71;100.00
10464;BME280;5279;42.048;24.638;2023-02-28T05:53:26;98197.59;;;8.73;100.00
10464;BME280;5279;42.048;24.638;2023-02-28T05:55:53;98190.66;;;8.95;100.00
10464;BME280;5279;42.048;24.638;2023-02-28T05:58:20;98196.41;;;9.00;100.00
10464;BME280;5279;42.048;24.638;2023-02-28T06:00:48;98201.69;;;9.22;100.00
10464;BME280;5279;42.048;24.638;2023-02-28T06:03:16;98196.63;;;9.41;100.00
10464;BME280;5279;42.048;24.638;2023-02-28T06:05:44;98201.53;;;9.46;98.12
10464;BME280;5279;42.048;24.638;2023-02-28T06:08:14;98196.09;;;9.58;100.00
10464;BME280;5279;42.048;24.638;2023-02-28T06:10:41;98199.19;;;9.74;97.65
10464;BME280;5279;42.048;24.638;2023-02-28T06:13:08;98210.78;;;10.05;98.13
10464;BME280;5279;42.048;24.638;2023-02-28T06:15:35;98204.44;;;10.28;93.01
10464;BME280;5279;42.048;24.638;2023-02-28T06:18:02;98205.34;;;10.59;89.23
10464;BME280;5279;42.048;24.638;2023-02-28T06:20:30;98204.41;;;10.90;84.92
10464;BME280;5279;42.048;24.638;2023-02-28T06:22:57;98209.09;;;11.08;84.96
10464;BME280;5279;42.048;24.638;2023-02-28T06:25:26;98215.03;;;11.21;86.04
10464;BME280;5279;42.048;24.638;2023-02-28T06:27:53;98212.31;;;11.41;85.29
10464;BME280;5279;42.048;24.638;2023-02-28T06:30:20;98216.22;;;11.47;86.13
10464;BME280;5279;42.048;24.638;2023-02-28T06:32:50;98214.44;;;11.57;86.76
10464;BME280;5279;42.048;24.638;2023-02-28T06:35:17;98215.22;;;11.78;85.39
10464;BME280;5279;42.048;24.638;2023-02-28T06:37:45;98218.28;;;11.83;86.29
10464;BME280;5279;42.048;24.638;2023-02-28T06:40:13;98206.56;;;11.95;85.99
10464;BME280;5279;42.048;24.638;2023-02-28T06:42:40;98215.53;;;12.14;86.08
10464;BME280;5279;42.048;24.638;2023-02-28T06:45:08;98214.28;;;12.18;85.58
10464;BME280;5279;42.048;24.638;2023-02-28T06:48:06;98216.94;;;12.18;86.65
10464;BME280;5279;42.048;24.638;2023-02-28T06:50:33;98211.06;;;12.24;86.42
10464;BME280;5279;42.048;24.638;2023-02-28T06:53:01;98220.97;;;12.41;86.38
10464;BME280;5279;42.048;24.638;2023-02-28T06:55:28;98217.47;;;12.69;84.72
10464;BME280;5279;42.048;24.638;2023-02-28T06:57:55;98216.84;;;12.94;82.74
10464;BME280;5279;42.048;24.638;2023-02-28T07:00:22;98213.44;;;13.02;80.62
10464;BME280;5279;42.048;24.638;2023-02-28T07:02:49;98206.97;;;13.24;81.29
10464;BME280;5279;42.048;24.638;2023-02-28T07:05:15;98208.84;;;13.41;78.86
10464;BME280;5279;42.048;24.638;2023-02-28T07:07:42;98211.91;;;13.46;78.05
10464;BME280;5279;42.048;24.638;2023-02-28T07:10:13;98211.56;;;13.58;77.66
10464;BME280;5279;42.048;24.638;2023-02-28T07:12:42;98206.91;;;13.88;76.34
10464;BME280;5279;42.048;24.638;2023-02-28T07:15:10;98214.72;;;13.89;74.47
10464;BME280;5279;42.048;24.638;2023-02-28T07:17:37;98214.69;;;14.16;74.03
10464;BME280;5279;42.048;24.638;2023-02-28T07:20:04;98215.91;;;14.22;72.73
10464;BME280;5279;42.048;24.638;2023-02-28T07:22:31;98219.59;;;14.39;71.46
10464;BME280;5279;42.048;24.638;2023-02-28T07:24:58;98217.06;;;14.55;69.90
10464;BME280;5279;42.048;24.638;2023-02-28T07:27:26;98214.56;;;14.36;71.52
10464;BME280;5279;42.048;24.638;2023-02-28T07:29:53;98209.41;;;14.34;71.38
10464;BME280;5279;42.048;24.638;2023-02-28T07:32:20;98221.63;;;14.45;72.17
10464;BME280;5279;42.048;24.638;2023-02-28T07:34:47;98219.16;;;14.69;70.41
10464;BME280;5279;42.048;24.638;2023-02-28T07:37:14;98223.16;;;14.65;70.40
10464;BME280;5279;42.048;24.638;2023-02-28T07:39:41;98220.50;;;14.47;71.57
10464;BME280;5279;42.048;24.638;2023-02-28T07:42:08;98225.13;;;14.63;70.13
10464;BME280;5279;42.048;24.638;2023-02-28T07:44:39;98224.63;;;14.85;69.10
10464;BME280;5279;42.048;24.638;2023-02-28T07:47:07;98225.63;;;15.10;68.72
10464;BME280;5279;42.048;24.638;2023-02-28T07:49:34;98219.09;;;15.04;66.82
10464;BME280;5279;42.048;24.638;2023-02-28T07:52:02;98225.03;;;15.24;66.79
10464;BME280;5279;42.048;24.638;2023-02-28T07:54:29;98226.94;;;15.31;64.69
10464;BME280;5279;42.048;24.638;2023-02-28T07:56:56;98231.41;;;15.57;63.89
10464;BME280;5279;42.048;24.638;2023-02-28T07:59:23;98230.16;;;15.17;65.63
10464;BME280;5279;42.048;24.638;2023-02-28T08:01:51;98242.09;;;15.05;66.33
10464;BME280;5279;42.048;24.638;2023-02-28T08:04:18;98247.97;;;14.83;67.86
10464;BME280;5279;42.048;24.638;2023-02-28T08:06:45;98245.53;;;14.72;66.82
10464;BME280;5279;42.048;24.638;2023-02-28T08:09:12;98250.59;;;14.40;68.67
10464;BME280;5279;42.048;24.638;2023-02-28T08:11:39;98245.88;;;14.34;69.79
10464;BME280;5279;42.048;24.638;2023-02-28T08:14:06;98243.88;;;14.36;69.88
10464;BME280;5279;42.048;24.638;2023-02-28T08:16:33;98257.00;;;14.19;70.99
10464;BME280;5279;42.048;24.638;2023-02-28T08:19:01;98254.56;;;14.08;71.92
10464;BME280;5279;42.048;24.638;2023-02-28T08:21:28;98250.75;;;13.93;70.74
10464;BME280;5279;42.048;24.638;2023-02-28T08:23:55;98254.22;;;13.49;73.30
10464;BME280;5279;42.048;24.638;2023-02-28T08:26:22;98256.03;;;13.48;74.58
10464;BME280;5279;42.048;24.638;2023-02-28T08:28:49;98251.56;;;13.49;74.89
10464;BME280;5279;42.048;24.638;2023-02-28T08:31:18;98251.72;;;13.38;75.57
10464;BME280;5279;42.048;24.638;2023-02-28T08:33:45;98257.13;;;13.28;75.67
10464;BME280;5279;42.048;24.638;2023-02-28T08:36:15;98256.03;;;13.11;76.94
10464;BME280;5279;42.048;24.638;2023-02-28T08:38:42;98252.09;;;13.06;77.85
10464;BME280;5279;42.048;24.638;2023-02-28T08:41:10;98263.25;;;13.29;77.33
10464;BME280;5279;42.048;24.638;2023-02-28T08:43:38;98248.56;;;13.25;77.15
10464;BME280;5279;42.048;24.638;2023-02-28T08:46:06;98254.19;;;13.22;77.48
10464;BME280;5279;42.048;24.638;2023-02-28T08:48:35;98248.16;;;13.20;77.14
10464;BME280;5279;42.048;24.638;2023-02-28T08:51:05;98258.38;;;13.24;77.27
10464;BME280;5279;42.048;24.638;2023-02-28T08:53:34;98264.13;;;13.20;77.46
10464;BME280;5279;42.048;24.638;2023-02-28T08:56:02;98267.91;;;13.07;78.75
10464;BME280;5279;42.048;24.638;2023-02-28T08:58:29;98259.69;;;12.91;80.22
10464;BME280;5279;42.048;24.638;2023-02-28T09:00:57;98265.31;;;12.88;80.79
10464;BME280;5279;42.048;24.638;2023-02-28T09:03:24;98259.28;;;12.77;82.47
10464;BME280;5279;42.048;24.638;2023-02-28T09:05:56;98262.50;;;12.71;83.65
10464;BME280;5279;42.048;24.638;2023-02-28T09:08:23;98267.69;;;12.72;82.35
10464;BME280;5279;42.048;24.638;2023-02-28T09:10:52;98263.38;;;12.52;84.95
10464;BME280;5279;42.048;24.638;2023-02-28T09:13:19;98255.81;;;12.57;84.68
10464;BME280;5279;42.048;24.638;2023-02-28T09:15:46;98256.78;;;12.56;84.95
10464;BME280;5279;42.048;24.638;2023-02-28T09:18:14;98252.44;;;12.74;84.17
10464;BME280;5279;42.048;24.638;2023-02-28T09:20:41;98258.06;;;12.52;85.93
10464;BME280;5279;42.048;24.638;2023-02-28T09:23:10;98246.16;;;12.66;85.29
10464;BME280;5279;42.048;24.638;2023-02-28T09:25:37;98254.09;;;12.94;84.54
10464;BME280;5279;42.048;24.638;2023-02-28T09:28:06;98246.78;;;13.06;83.60
10464;BME280;5279;42.048;24.638;2023-02-28T09:30:33;98242.94;;;13.37;80.36
10464;BME280;5279;42.048;24.638;2023-02-28T09:33:00;98243.88;;;13.46;78.14
10464;BME280;5279;42.048;24.638;2023-02-28T09:35:27;98245.06;;;13.61;76.97
10464;BME280;5279;42.048;24.638;2023-02-28T09:37:56;98242.97;;;13.55;76.75
10464;BME280;5279;42.048;24.638;2023-02-28T09:40:24;98240.72;;;13.60;76.52
10464;BME280;5279;42.048;24.638;2023-02-28T09:42:55;98241.03;;;13.47;76.65
10464;BME280;5279;42.048;24.638;2023-02-28T09:45:47;98246.69;;;13.35;78.61
10464;BME280;5279;42.048;24.638;2023-02-28T09:48:18;98238.91;;;13.04;80.58
10464;BME280;5279;42.048;24.638;2023-02-28T09:50:50;98236.44;;;13.12;80.65
10464;BME280;5279;42.048;24.638;2023-02-28T09:53:22;98226.88;;;13.20;81.26
10464;BME280;5279;42.048;24.638;2023-02-28T09:55:55;98230.13;;;13.41;78.69
10464;BME280;5279;42.048;24.638;2023-02-28T09:58:28;98220.06;;;13.35;80.23
10464;BME280;5279;42.048;24.638;2023-02-28T10:01:02;98223.44;;;13.37;79.48
10464;BME280;5279;42.048;24.638;2023-02-28T10:03:32;98219.31;;;13.52;79.03
10464;BME280;5279;42.048;24.638;2023-02-28T10:06:07;98213.81;;;13.53;79.08
10464;BME280;5279;42.048;24.638;2023-02-28T10:08:51;98205.59;;;13.47;79.34
10464;BME280;5279;42.048;24.638;2023-02-28T10:11:20;98200.22;;;13.56;79.04
10464;BME280;5279;42.048;24.638;2023-02-28T10:13:52;98204.50;;;13.67;78.39
10464;BME280;5279;42.048;24.638;2023-02-28T10:16:31;98206.47;;;13.65;78.25
10464;BME280;5279;42.048;24.638;2023-02-28T10:19:03;98198.28;;;13.76;78.71
10464;BME280;5279;42.048;24.638;2023-02-28T10:21:36;98196.25;;;13.88;77.65
10464;BME280;5279;42.048;24.638;2023-02-28T10:24:14;98192.22;;;14.01;75.80
10464;BME280;5279;42.048;24.638;2023-02-28T10:26:45;98190.56;;;14.00;76.19
10464;BME280;5279;42.048;24.638;2023-02-28T10:29:12;98194.19;;;13.99;76.06
10464;BME280;5279;42.048;24.638;2023-02-28T10:31:42;98200.53;;;13.71;77.44
10464;BME280;5279;42.048;24.638;2023-02-28T10:34:12;98192.19;;;13.66;77.24
10464;BME280;5279;42.048;24.638;2023-02-28T10:36:39;98191.88;;;13.69;78.08
10464;BME280;5279;42.048;24.638;2023-02-28T10:39:39;98187.78;;;13.92;76.94
10464;BME280;5279;42.048;24.638;2023-02-28T10:42:20;98182.88;;;13.97;76.15
10464;BME280;5279;42.048;24.638;2023-02-28T10:44:47;98192.13;;;13.76;76.70
10464;BME280;5279;42.048;24.638;2023-02-28T10:47:17;98192.66;;;13.79;77.08
10464;BME280;5279;42.048;24.638;2023-02-28T10:49:48;98191.50;;;13.64;76.64
10464;BME280;5279;42.048;24.638;2023-02-28T10:52:33;98180.28;;;13.43;78.40
10464;BME280;5279;42.048;24.638;2023-02-28T10:55:20;98184.78;;;13.33;79.20
10464;BME280;5279;42.048;24.638;2023-02-28T10:57:47;98167.59;;;13.27;80.18
10464;BME280;5279;42.048;24.638;2023-02-28T11:00:16;98175.94;;;12.95;82.93
10464;BME280;5279;42.048;24.638;2023-02-28T11:02:46;98177.09;;;12.83;83.30
10464;BME280;5279;42.048;24.638;2023-02-28T11:05:25;98181.91;;;12.70;85.14
10464;BME280;5279;42.048;24.638;2023-02-28T11:07:53;98171.72;;;12.56;86.75
10464;BME280;5279;42.048;24.638;2023-02-28T11:10:22;98172.00;;;12.53;87.41
10464;BME280;5279;42.048;24.638;2023-02-28T11:12:55;98179.75;;;12.18;91.62
10464;BME280;5279;42.048;24.638;2023-02-28T11:15:24;98184.50;;;12.04;92.96
10464;BME280;5279;42.048;24.638;2023-02-28T11:17:57;98175.53;;;11.86;94.88
10464;BME280;5279;42.048;24.638;2023-02-28T11:20:28;98173.72;;;11.77;96.72
10464;BME280;5279;42.048;24.638;2023-02-28T11:22:57;98169.75;;;11.62;98.90
10464;BME280;5279;42.048;24.638;2023-02-28T11:25:27;98168.19;;;11.60;100.00
10464;BME280;5279;42.048;24.638;2023-02-28T11:27:56;98171.44;;;11.63;100.00
10464;BME280;5279;42.048;24.638;2023-02-28T11:30:30;98170.69;;;11.42;100.00
10464;BME280;5279;42.048;24.638;2023-02-28T11:33:00;98176.25;;;11.39;100.00
10464;BME280;5279;42.048;24.638;2023-02-28T11:35:30;98177.06;;;11.30;100.00
10464;BME280;5279;42.048;24.638;2023-02-28T11:37:58;98183.09;;;11.02;100.00
10464;BME280;5279;42.048;24.638;2023-02-28T11:40:31;98173.91;;;11.06;100.00
10464;BME280;5279;42.048;24.638;2023-02-28T11:43:19;98169.31;;;11.08;100.00
10464;BME280;5279;42.048;24.638;2023-02-28T11:46:01;98170.53;;;11.04;100.00
10464;BME280;5279;42.048;24.638;2023-02-28T11:48:42;98169.94;;;10.90;100.00
10464;BME280;5279;42.048;24.638;2023-02-28T11:51:21;98171.53;;;10.72;100.00
10464;BME280;5279;42.048;24.638;2023-02-28T11:54:04;98173.72;;;10.67;100.00
10464;BME280;5279;42.048;24.638;2023-02-28T11:56:37;98177.41;;;10.55;100.00
10464;BME280;5279;42.048;24.638;2023-02-28T11:59:18;98170.63;;;10.62;100.00
10464;BME280;5279;42.048;24.638;2023-02-28T12:02:10;98167.44;;;10.68;100.00
10464;BME280;5279;42.048;24.638;2023-02-28T12:04:52;98174.72;;;10.66;100.00
10464;BME280;5279;42.048;24.638;2023-02-28T12:07:32;98159.50;;;10.68;100.00
10464;BME280;5279;42.048;24.638;2023-02-28T12:10:12;98164.81;;;10.68;100.00
10464;BME280;5279;42.048;24.638;2023-02-28T12:12:49;98164.28;;;10.74;100.00
10464;BME280;5279;42.048;24.638;2023-02-28T12:15:38;98159.81;;;10.75;100.00
10464;BME280;5279;42.048;24.638;2023-02-28T12:18:30;98159.81;;;10.75;100.00
10464;BME280;5279;42.048;24.638;2023-02-28T12:21:12;98157.16;;;10.75;100.00
10464;BME280;5279;42.048;24.638;2023-02-28T12:23:54;98158.44;;;10.80;100.00
10464;BME280;5279;42.048;24.638;2023-02-28T12:26:31;98155.84;;;10.60;100.00
10464;BME280;5279;42.048;24.638;2023-02-28T12:29:05;98154.47;;;10.65;100.00
10464;BME280;5279;42.048;24.638;2023-02-28T12:31:38;98154.72;;;10.62;100.00
10464;BME280;5279;42.048;24.638;2023-02-28T12:34:12;98154.56;;;10.54;100.00
10464;BME280;5279;42.048;24.638;2023-02-28T12:36:41;98147.31;;;10.56;100.00
10464;BME280;5279;42.048;24.638;2023-02-28T12:39:14;98142.00;;;10.56;100.00
10464;BME280;5279;42.048;24.638;2023-02-28T12:41:46;98148.25;;;10.55;100.00
10464;BME280;5279;42.048;24.638;2023-02-28T12:44:18;98155.31;;;10.66;100.00
10464;BME280;5279;42.048;24.638;2023-02-28T12:46:49;98150.84;;;10.66;100.00
10464;BME280;5279;42.048;24.638;2023-02-28T12:49:21;98138.31;;;10.68;100.00
10464;BME280;5279;42.048;24.638;2023-02-28T12:51:52;98137.78;;;10.74;100.00
10464;BME280;5279;42.048;24.638;2023-02-28T12:54:24;98140.25;;;10.66;100.00
10464;BME280;5279;42.048;24.638;2023-02-28T12:56:57;98144.13;;;10.62;100.00
10464;BME280;5279;42.048;24.638;2023-02-28T12:59:34;98141.66;;;10.70;100.00
10464;BME280;5279;42.048;24.638;2023-02-28T13:02:24;98143.34;;;10.71;100.00
10464;BME280;5279;42.048;24.638;2023-02-28T13:05:10;98135.53;;;10.70;100.00
10464;BME280;5279;42.048;24.638;2023-02-28T13:08:08;98139.78;;;10.61;100.00
10464;BME280;5279;42.048;24.638;2023-02-28T13:10:40;98148.06;;;10.68;100.00
10464;BME280;5279;42.048;24.638;2023-02-28T13:13:14;98144.97;;;10.63;100.00
10464;BME280;5279;42.048;24.638;2023-02-28T13:15:57;98131.56;;;10.64;100.00
10464;BME280;5279;42.048;24.638;2023-02-28T13:18:29;98137.41;;;10.58;100.00
10464;BME280;5279;42.048;24.638;2023-02-28T13:20:57;98136.88;;;10.64;100.00
10464;BME280;5279;42.048;24.638;2023-02-28T13:23:57;98138.81;;;10.62;100.00
10464;BME280;5279;42.048;24.638;2023-02-28T13:29:37;98135.47;;;10.60;100.00
10464;BME280;5279;42.048;24.638;2023-02-28T13:32:32;98131.22;;;10.48;100.00